地図

経路データ

SID SEASON NUMBER BASIN SUBBASIN NAME ISO_TIME NATURE LAT LON WMO_WIND WMO_PRES WMO_AGENCY TRACK_TYPE DIST2LAND LANDFALL IFLAG USA_AGENCY USA_ATCF_ID USA_LAT USA_LON USA_RECORD USA_STATUS USA_WIND USA_PRES USA_SSHS USA_R34_NE USA_R34_SE USA_R34_SW USA_R34_NW USA_R50_NE USA_R50_SE USA_R50_SW USA_R50_NW USA_R64_NE USA_R64_SE USA_R64_SW USA_R64_NW USA_POCI USA_ROCI USA_RMW USA_EYE TOKYO_LAT TOKYO_LON TOKYO_GRADE TOKYO_WIND TOKYO_PRES TOKYO_R50_DIR TOKYO_R50_LONG TOKYO_R50_SHORT TOKYO_R30_DIR TOKYO_R30_LONG TOKYO_R30_SHORT TOKYO_LAND CMA_LAT CMA_LON CMA_CAT CMA_WIND CMA_PRES HKO_LAT HKO_LON HKO_CAT HKO_WIND HKO_PRES NEWDELHI_LAT NEWDELHI_LON NEWDELHI_GRADE NEWDELHI_WIND NEWDELHI_PRES NEWDELHI_CI NEWDELHI_DP NEWDELHI_POCI REUNION_LAT REUNION_LON REUNION_TYPE REUNION_WIND REUNION_PRES REUNION_TNUM REUNION_CI REUNION_RMW REUNION_R34_NE REUNION_R34_SE REUNION_R34_SW REUNION_R34_NW REUNION_R50_NE REUNION_R50_SE REUNION_R50_SW REUNION_R50_NW REUNION_R64_NE REUNION_R64_SE REUNION_R64_SW REUNION_R64_NW BOM_LAT BOM_LON BOM_TYPE BOM_WIND BOM_PRES BOM_TNUM BOM_CI BOM_RMW BOM_R34_NE BOM_R34_SE BOM_R34_SW BOM_R34_NW BOM_R50_NE BOM_R50_SE BOM_R50_SW BOM_R50_NW BOM_R64_NE BOM_R64_SE BOM_R64_SW BOM_R64_NW BOM_ROCI BOM_POCI BOM_EYE BOM_POS_METHOD BOM_PRES_METHOD NADI_LAT NADI_LON NADI_CAT NADI_WIND NADI_PRES WELLINGTON_LAT WELLINGTON_LON WELLINGTON_WIND WELLINGTON_PRES DS824_LAT DS824_LON DS824_STAGE DS824_WIND DS824_PRES TD9636_LAT TD9636_LON TD9636_STAGE TD9636_WIND TD9636_PRES TD9635_LAT TD9635_LON TD9635_WIND TD9635_PRES TD9635_ROCI NEUMANN_LAT NEUMANN_LON NEUMANN_CLASS NEUMANN_WIND NEUMANN_PRES MLC_LAT MLC_LON MLC_CLASS MLC_WIND MLC_PRES USA_GUST BOM_GUST BOM_GUST_PER REUNION_GUST REUNION_GUST_PER USA_SEAHGT USA_SEARAD_NE USA_SEARAD_SE USA_SEARAD_SW USA_SEARAD_NW STORM_SPEED STORM_DIR
1950257N23138 1950 80 WP MM NOT_NAMED 1950-09-14 00:00:00 TS 23.0000 138.000 main 1141 1077 __O___________ -1 23.0000 138.000 1 29 1004 15 1
1950257N23138 1950 80 WP MM NOT_NAMED 1950-09-14 03:00:00 TS 23.7701 138.023 main 1068 997 __P___________ -1 23.7701 138.023 1 29 1004 16 0
1950257N23138 1950 80 WP MM NOT_NAMED 1950-09-14 06:00:00 TS 24.6000 138.000 main 997 904 __O___________ -1 24.6000 138.000 1 29 1004 18 356
1950257N23138 1950 80 WP MM NOT_NAMED 1950-09-14 09:00:00 TS 25.5272 137.882 main 904 800 __P___________ -1 25.5272 137.882 1 33 1003 19 349
1950257N23138 1950 80 WP MM NOT_NAMED 1950-09-14 12:00:00 TS 26.5000 137.600 main 789 682 __O___________ -1 26.5000 137.600 2 38 1002 20 341
1950257N23138 1950 80 WP MM NOT_NAMED 1950-09-14 15:00:00 TS 27.4499 137.132 main 680 572 __P___________ -1 27.4499 137.132 2 38 1002 21 333
1950257N23138 1950 80 WP MM NOT_NAMED 1950-09-14 18:00:00 TS 28.4000 136.500 main 561 457 __O___________ -1 28.4000 136.500 2 38 1002 22 329
1950257N23138 1950 80 WP MM NOT_NAMED 1950-09-14 21:00:00 TS 29.3490 135.830 main 457 342 __P___________ -1 29.3490 135.830 2 38 1003 23 325
1950257N23138 1950 80 WP MM NOT_NAMED 1950-09-15 00:00:00 TS 30.3000 135.000 main 327 177 __O___________ -1 30.3000 135.000 2 38 1004 26 320
1950257N23138 1950 80 WP MM NOT_NAMED 1950-09-15 03:00:00 TS 31.3496 133.867 main 177 58 __P___________ -1 31.3496 133.867 2 38 1004 27 315
1950257N23138 1950 80 WP MM NOT_NAMED 1950-09-15 06:00:00 TS 32.2000 132.800 main 58 35 __O___________ -1 32.2000 132.800 2 38 1004 19 310
1950257N23138 1950 80 WP MM NOT_NAMED 1950-09-15 09:00:00 TS 32.5508 132.191 main 30 0 __P___________ -1 32.5508 132.191 2 33 1005 10 305
1950257N23138 1950 80 WP MM NOT_NAMED 1950-09-15 12:00:00 TS 32.8000 131.800 main 0 0 __O___________ -1 32.8000 131.800 1 29 1006 11 318
1950257N23138 1950 80 WP MM NOT_NAMED 1950-09-15 15:00:00 TS 33.3551 131.319 main 0 0 __P___________ -1 33.3551 131.319 1 29 1007 14 331
1950257N23138 1950 80 WP MM NOT_NAMED 1950-09-15 18:00:00 TS 34.0000 131.000 main 9 0 __O___________ -1 34.0000 131.000 1 29 1008 13 346
1950257N23138 1950 80 WP MM NOT_NAMED 1950-09-15 21:00:00 TS 34.5921 130.937 main 33 33 __P___________ -1 34.5921 130.937 1 1009 12 4
1950257N23138 1950 80 WP MM NOT_NAMED 1950-09-16 00:00:00 TS 35.2000 131.100 main 80 80 __O___________ -1 35.2000 131.100 0 1010 13 15
1950257N23138 1950 80 WP MM NOT_NAMED 1950-09-16 03:00:00 TS 35.8497 131.360 main 114 114 __P___________ -1 35.8497 131.360 0 1010 14 24
1950257N23138 1950 80 WP MM NOT_NAMED 1950-09-16 06:00:00 TS 36.5000 131.800 main 142 142 __O___________ -1 36.5000 131.800 0 1010 15 32
1950257N23138 1950 80 WP MM NOT_NAMED 1950-09-16 09:00:00 TS 37.1294 132.360 main 183 183 __P___________ -1 37.1294 132.360 0 1010 16 41
1950257N23138 1950 80 WP MM NOT_NAMED 1950-09-16 12:00:00 ET 37.7000 133.100 main 245 245 __O___________ -1 37.7000 133.100 9 1010 16 51
1950257N23138 1950 80 WP MM NOT_NAMED 1950-09-16 15:00:00 ET 38.1398 133.912 main 265 206 __P___________ -1 38.1398 133.912 9 1010 17 59
1950257N23138 1950 80 WP MM NOT_NAMED 1950-09-16 18:00:00 ET 38.6000 135.000 main 206 188 __O___________ -1 38.6000 135.000 9 1010 23 61
1950257N23138 1950 80 WP MM NOT_NAMED 1950-09-16 21:00:00 ET 39.2510 136.492 main 213 136 __P___________ -1 39.2510 136.492 9 1010 28 62
1950257N23138 1950 80 WP MM NOT_NAMED 1950-09-17 00:00:00 ET 39.9000 138.200 main 127 25 __O___________ -1 39.9000 138.200 9 1010 28 66
1950257N23138 1950 80 WP MM NOT_NAMED 1950-09-17 03:00:00 ET 40.3770 139.825 main 16 0 __P___________ -1 40.3770 139.825 9 1010 27 70
1950257N23138 1950 80 WP MM NOT_NAMED 1950-09-17 06:00:00 ET 40.8000 141.500 main 8 8 __O___________ -1 40.8000 141.500 9 1010 27 72
1950257N23138 1950 80 WP MM NOT_NAMED 1950-09-17 09:00:00 ET 41.2463 143.266 main 78 68 __P___________ -1 41.2463 143.266 9 1010 28 72
1950257N23138 1950 80 WP MM NOT_NAMED 1950-09-17 12:00:00 ET 41.7000 145.100 main 135 __O___________ -1 41.7000 145.100 9 1010 29 72

デジタル台風データ・検索

IBTrACS Databaseについて

本データベースは、米国NOAAが公開する1842年以降の世界の熱帯低気圧のベストトラックデータアーカイブInternational Best Track Archive for Climate Stewardship (IBTrACS)を、ウェブで閲覧しやすい形式に変換したものです。

最終更新日:2021-11-26